Time;durP1;ratioP1;P1;durP2;ratioP2;P2;SDS_P1;SDS_P2;PMS_P1;PMS_P2;Temp;Humidity;BMP_temperature;BMP_pressure;BME280_temperature;BME280_humidity;BME280_pressure;Samples;Min_cycle;Max_cycle;Signal;HPM_P1;HPM_P2
2022/01/19 00:01:15;;;;;;;0.93;0.90;;;5.80;99.90;;;;;;4440375;32;20128;-65
2022/01/19 00:03:41;;;;;;;2.00;0.95;;;5.80;99.90;;;;;;4440360;32;20061;-65
2022/01/19 00:06:07;;;;;;;0.30;0.30;;;5.80;99.90;;;;;;4442520;32;20086;-65
2022/01/19 00:08:33;;;;;;;0.32;0.32;;;5.80;99.90;;;;;;4443132;32;20061;-65
2022/01/19 00:10:58;;;;;;;3.62;0.65;;;5.80;99.90;;;;;;4440925;32;20076;-64
2022/01/19 00:13:24;;;;;;;0.40;0.40;;;5.80;99.90;;;;;;4442604;32;20535;-65
2022/01/19 00:15:51;;;;;;;0.60;0.60;;;5.80;99.90;;;;;;4440907;32;20105;-65
2022/01/19 00:18:18;;;;;;;0.30;0.30;;;5.80;99.90;;;;;;4441668;32;20124;-64
2022/01/19 00:20:45;;;;;;;0.43;0.43;;;5.80;99.90;;;;;;4441397;32;20556;-64
2022/01/19 00:23:11;;;;;;;4.12;0.68;;;5.70;99.90;;;;;;4442204;32;20525;-65
2022/01/19 00:25:37;;;;;;;0.57;0.57;;;5.70;99.90;;;;;;4440637;32;20112;-64
2022/01/19 00:28:04;;;;;;;0.40;0.40;;;5.70;99.90;;;;;;4441241;32;20108;-65
2022/01/19 00:30:30;;;;;;;0.75;0.75;;;5.80;99.90;;;;;;4440651;32;20069;-65
2022/01/19 00:32:56;;;;;;;0.70;0.70;;;5.80;99.90;;;;;;4442290;32;20056;-64
2022/01/19 00:35:22;;;;;;;5.47;0.60;;;5.90;99.90;;;;;;4439547;32;20105;-65
2022/01/19 00:37:48;;;;;;;1.65;1.40;;;5.80;99.90;;;;;;4441101;32;20434;-65
2022/01/19 00:40:15;;;;;;;1.40;0.85;;;5.80;99.90;;;;;;4440179;32;20057;-64
2022/01/19 00:42:41;;;;;;;0.30;0.30;;;5.80;99.90;;;;;;4438715;32;20228;-64
2022/01/19 00:45:08;;;;;;;0.30;0.30;;;5.80;99.90;;;;;;4441361;32;20359;-65
2022/01/19 00:47:33;;;;;;;0.30;0.30;;;5.80;99.90;;;;;;4442652;32;20281;-64
2022/01/19 00:49:59;;;;;;;0.52;0.52;;;5.80;99.90;;;;;;4441825;32;20123;-64
2022/01/19 00:52:25;;;;;;;6.93;2.92;;;5.80;99.90;;;;;;4440887;32;20608;-65
2022/01/19 00:54:51;;;;;;;3.12;0.85;;;5.70;99.90;;;;;;4442171;32;20082;-65
2022/01/19 00:57:17;;;;;;;0.93;0.93;;;5.80;99.90;;;;;;4439160;32;20430;-65
2022/01/19 00:59:42;;;;;;;0.35;0.35;;;5.80;99.90;;;;;;4441779;32;20149;-65
2022/01/19 01:02:08;;;;;;;23.58;2.15;;;5.80;99.90;;;;;;4440948;32;20120;-65
2022/01/19 01:04:34;;;;;;;0.37;0.37;;;5.70;99.90;;;;;;4440298;32;20070;-65
2022/01/19 01:06:59;;;;;;;0.32;0.32;;;5.80;99.90;;;;;;4440835;32;20110;-66
2022/01/19 01:09:25;;;;;;;3.83;1.45;;;5.80;99.90;;;;;;4440387;32;20100;-65
2022/01/19 01:12:01;;;;;;;8.93;1.10;;;5.70;99.90;;;;;;4437946;32;20151;-65
2022/01/19 01:15:47;;;;;;;0.60;0.60;;;5.80;99.90;;;;;;4440641;32;20503;-65
2022/01/19 01:18:22;;;;;;;4.03;0.88;;;5.80;99.90;;;;;;4438729;32;20081;-65
2022/01/19 01:20:06;;;;;;;0.30;0.30;;;5.80;99.90;;;;;;4440426;32;20073;-65
2022/01/19 01:22:32;;;;;;;0.70;0.65;;;5.70;99.90;;;;;;4440508;32;20075;-65
2022/01/19 01:24:57;;;;;;;7.10;2.33;;;5.80;99.90;;;;;;4440942;32;20506;-65
2022/01/19 01:27:23;;;;;;;0.40;0.40;;;5.80;99.90;;;;;;4438418;32;20097;-65
2022/01/19 01:29:49;;;;;;;2.10;1.15;;;5.80;99.90;;;;;;4441135;32;20216;-65
2022/01/19 01:32:14;;;;;;;0.40;0.40;;;5.90;99.90;;;;;;4439186;32;20508;-65
2022/01/19 01:34:40;;;;;;;1.48;0.93;;;5.80;99.90;;;;;;4439702;32;20064;-65
2022/01/19 01:37:05;;;;;;;0.77;0.77;;;5.80;99.90;;;;;;4440967;32;20406;-65
2022/01/19 01:39:31;;;;;;;0.82;0.80;;;5.80;99.90;;;;;;4441183;32;20053;-65
2022/01/19 01:41:56;;;;;;;5.55;1.58;;;5.80;99.90;;;;;;4442315;32;20065;-65
2022/01/19 01:44:22;;;;;;;1.65;0.82;;;5.80;99.90;;;;;;4440574;32;20061;-65
2022/01/19 01:46:52;;;;;;;2.10;1.42;;;5.80;99.90;;;;;;4441215;32;20132;-65
2022/01/19 01:49:39;;;;;;;1.20;0.60;;;5.80;99.90;;;;;;4441227;32;20076;-65
2022/01/19 01:53:35;;;;;;;2.50;0.93;;;5.80;99.90;;;;;;4437438;32;20085;-65
2022/01/19 01:54:49;;;;;;;0.50;0.50;;;5.80;99.90;;;;;;4440344;32;20127;-65
2022/01/19 01:57:14;;;;;;;1.70;0.98;;;5.80;99.90;;;;;;4443340;32;20069;-65
2022/01/19 01:59:40;;;;;;;1.02;1.02;;;5.80;99.90;;;;;;4442400;32;20081;-64
2022/01/19 02:02:05;;;;;;;3.78;1.37;;;5.80;99.90;;;;;;4437289;32;20061;-65
2022/01/19 02:04:33;;;;;;;2.78;1.10;;;5.80;99.90;;;;;;4444452;32;20072;-66
2022/01/19 02:09:37;;;;;;;0.75;0.40;;;5.70;99.90;;;;;;4443037;32;20057;-65
2022/01/19 02:16:11;;;;;;;2.25;0.82;;;5.70;99.90;;;;;;4439684;32;20053;-65
2022/01/19 02:22:31;;;;;;;1.55;1.10;;;5.80;99.90;;;;;;4442712;32;20061;-66
2022/01/19 02:23:21;;;;;;;0.52;0.52;;;5.80;99.90;;;;;;4441083;32;20124;-64
2022/01/19 02:25:49;;;;;;;0.35;0.35;;;5.80;99.90;;;;;;4442803;32;20073;-64
2022/01/19 02:29:52;;;;;;;1.05;0.98;;;5.70;99.90;;;;;;4441825;32;20078;-64
2022/01/19 02:36:52;;;;;;;4.68;1.48;;;5.70;99.90;;;;;;4442190;32;20093;-66
2022/01/19 02:40:19;;;;;;;0.30;0.30;;;5.70;99.90;;;;;;4442738;32;20089;-65
2022/01/19 02:42:07;;;;;;;0.55;0.55;;;5.70;99.90;;;;;;4441775;32;20105;-65
2022/01/19 02:49:45;;;;;;;0.75;0.75;;;5.60;99.90;;;;;;4441992;32;20101;-65
2022/01/19 02:52:11;;;;;;;11.50;0.60;;;5.60;99.90;;;;;;4443309;32;20056;-64
2022/01/19 02:54:37;;;;;;;1.25;0.88;;;5.60;99.90;;;;;;4442125;32;20120;-64
2022/01/19 02:57:03;;;;;;;0.70;0.70;;;5.60;99.90;;;;;;4439932;32;20070;-65
2022/01/19 02:59:46;;;;;;;1.05;0.57;;;5.60;99.90;;;;;;4442675;32;20550;-64
2022/01/19 03:08:46;;;;;;;2.05;1.77;;;5.60;99.90;;;;;;4441848;32;20073;-65
2022/01/19 03:10:28;;;;;;;5.37;1.25;;;5.60;99.90;;;;;;4438755;32;20069;-65
2022/01/19 03:12:54;;;;;;;0.32;0.32;;;5.60;99.90;;;;;;4443322;32;20147;-66
2022/01/19 03:15:20;;;;;;;5.47;1.30;;;5.60;99.90;;;;;;4443108;32;20084;-65
2022/01/19 03:17:45;;;;;;;4.95;1.52;;;5.70;99.90;;;;;;4443579;32;20511;-65
2022/01/19 03:20:12;;;;;;;0.30;0.30;;;5.70;99.90;;;;;;4440848;32;20098;-65
2022/01/19 03:22:50;;;;;;;1.17;1.08;;;5.70;99.90;;;;;;4442783;32;20073;-65
2022/01/19 03:25:16;;;;;;;0.68;0.68;;;5.60;99.90;;;;;;4441044;32;20065;-65
2022/01/19 03:27:46;;;;;;;3.80;2.25;;;5.60;99.90;;;;;;4442062;32;20754;-65
2022/01/19 03:30:11;;;;;;;0.35;0.35;;;5.60;99.90;;;;;;4441893;32;20072;-65
2022/01/19 03:32:37;;;;;;;0.60;0.60;;;5.60;99.90;;;;;;4441889;32;20065;-65
2022/01/19 03:35:03;;;;;;;0.37;0.37;;;5.60;99.90;;;;;;4441826;32;20513;-65
2022/01/19 03:37:29;;;;;;;0.40;0.40;;;5.60;99.90;;;;;;4442403;32;20144;-65
2022/01/19 03:39:54;;;;;;;5.82;1.85;;;5.50;99.90;;;;;;4443987;32;20433;-65
2022/01/19 03:42:20;;;;;;;3.83;1.05;;;5.60;99.90;;;;;;4442714;32;20062;-65
2022/01/19 03:44:45;;;;;;;6.80;1.37;;;5.60;99.90;;;;;;4441747;32;20414;-66
2022/01/19 03:47:11;;;;;;;0.60;0.60;;;5.60;99.90;;;;;;4441834;32;20077;-65
2022/01/19 03:49:36;;;;;;;6.25;0.77;;;5.60;99.90;;;;;;4443005;32;20135;-65
2022/01/19 03:52:05;;;;;;;4.25;0.90;;;5.60;99.90;;;;;;4442071;32;20478;-65
2022/01/19 03:54:42;;;;;;;4.22;1.25;;;5.60;99.90;;;;;;4435494;32;20119;-65
2022/01/19 03:57:08;;;;;;;1.83;1.00;;;5.60;99.90;;;;;;4441562;32;20115;-65
2022/01/19 03:59:33;;;;;;;0.47;0.47;;;5.60;99.90;;;;;;4439639;32;20398;-65
2022/01/19 04:01:59;;;;;;;1.00;0.90;;;5.60;99.90;;;;;;4441444;32;20157;-65
2022/01/19 04:05:04;;;;;;;0.60;0.60;;;5.60;99.90;;;;;;4443233;32;20089;-65
2022/01/19 04:07:11;;;;;;;7.05;2.45;;;5.70;99.90;;;;;;4440966;32;20069;-65
2022/01/19 04:09:40;;;;;;;2.15;0.90;;;5.60;99.90;;;;;;4442692;32;20183;-65
2022/01/19 04:12:08;;;;;;;0.65;0.65;;;5.60;99.90;;;;;;4439367;32;20077;-65
2022/01/19 04:14:34;;;;;;;0.50;0.50;;;5.60;99.90;;;;;;4442220;32;20065;-65
2022/01/19 04:17:04;;;;;;;0.40;0.40;;;5.60;99.90;;;;;;4442027;32;20084;-66
2022/01/19 04:19:34;;;;;;;0.30;0.30;;;5.60;99.90;;;;;;4441591;32;20070;-66
2022/01/19 04:22:03;;;;;;;0.75;0.62;;;5.60;99.90;;;;;;4438187;32;20093;-66
2022/01/19 04:24:28;;;;;;;0.82;0.82;;;5.60;99.90;;;;;;4441062;32;20517;-66
2022/01/19 04:29:49;;;;;;;0.75;0.60;;;5.60;99.90;;;;;;4439841;32;20127;-64
2022/01/19 04:32:19;;;;;;;0.68;0.65;;;5.60;99.90;;;;;;4441173;32;20413;-64
2022/01/19 04:34:48;;;;;;;0.50;0.50;;;5.50;99.90;;;;;;4439045;32;88531;-65
2022/01/19 04:44:38;;;;;;;0.47;0.47;;;5.50;99.90;;;;;;4436417;32;20077;-66
2022/01/19 04:48:09;;;;;;;0.50;0.50;;;5.50;99.90;;;;;;4435609;32;20123;-65
2022/01/19 05:03:41;;;;;;;0.40;0.40;;;5.40;99.90;;;;;;4439085;32;20076;-65
2022/01/19 05:04:45;;;;;;;0.93;0.73;;;5.40;99.90;;;;;;4440257;32;20556;-65
2022/01/19 05:07:09;;;;;;;1.37;1.27;;;5.40;99.90;;;;;;4440884;32;20133;-66
2022/01/19 05:13:37;;;;;;;0.60;0.60;;;5.40;99.90;;;;;;4439569;32;20147;-65
2022/01/19 05:14:47;;;;;;;1.25;0.98;;;5.40;99.90;;;;;;4438681;32;20065;-66
2022/01/19 05:17:13;;;;;;;10.82;1.33;;;5.40;99.90;;;;;;4441565;32;20093;-65
2022/01/19 05:19:38;;;;;;;1.10;0.90;;;5.30;99.90;;;;;;4438125;32;20147;-66
2022/01/19 05:22:04;;;;;;;0.62;0.50;;;5.30;99.90;;;;;;4433629;32;20053;-65
2022/01/19 05:24:29;;;;;;;0.68;0.35;;;5.30;99.90;;;;;;4440954;32;20065;-66
2022/01/19 05:26:55;;;;;;;0.47;0.47;;;5.30;99.90;;;;;;4440826;32;20113;-65
2022/01/19 05:29:20;;;;;;;4.35;2.62;;;5.30;99.90;;;;;;4441164;32;20090;-66
2022/01/19 05:31:46;;;;;;;2.75;0.75;;;5.20;99.90;;;;;;4442997;32;20064;-66
2022/01/19 05:34:11;;;;;;;0.55;0.47;;;5.20;99.90;;;;;;4442889;32;20529;-66
2022/01/19 05:36:37;;;;;;;0.70;0.70;;;5.30;99.90;;;;;;4442410;32;20066;-66
2022/01/19 05:39:05;;;;;;;0.40;0.40;;;5.40;99.90;;;;;;4443741;32;20155;-66
2022/01/19 05:41:32;;;;;;;4.32;1.27;;;5.30;99.90;;;;;;4443564;32;20072;-66
2022/01/19 05:43:58;;;;;;;4.78;1.25;;;5.30;99.90;;;;;;4443256;32;20061;-66
2022/01/19 05:46:24;;;;;;;3.72;1.20;;;5.30;99.90;;;;;;4441868;32;20510;-66
2022/01/19 05:48:49;;;;;;;1.35;0.57;;;5.30;99.90;;;;;;4443693;32;20077;-67
2022/01/19 05:51:15;;;;;;;2.08;1.33;;;5.30;99.90;;;;;;4442256;32;20557;-66
2022/01/19 05:53:40;;;;;;;0.80;0.80;;;5.30;99.90;;;;;;4442863;32;20183;-66
2022/01/19 05:56:07;;;;;;;0.68;0.68;;;5.20;99.90;;;;;;4442419;32;20177;-65
2022/01/19 05:58:32;;;;;;;0.37;0.37;;;5.20;99.90;;;;;;4442388;32;20117;-66
2022/01/19 06:01:01;;;;;;;0.50;0.50;;;5.10;99.90;;;;;;4438810;32;20061;-65
2022/01/19 06:03:27;;;;;;;0.37;0.37;;;5.10;99.90;;;;;;4436102;32;20089;-65
2022/01/19 06:05:53;;;;;;;2.45;0.90;;;5.10;99.90;;;;;;4437442;32;20513;-65
2022/01/19 06:10:47;;;;;;;0.50;0.50;;;5.10;99.90;;;;;;4439204;32;20480;-65
2022/01/19 06:13:16;;;;;;;1.48;1.25;;;5.10;99.90;;;;;;4442352;32;20131;-65
2022/01/19 06:15:44;;;;;;;9.27;1.27;;;5.10;99.90;;;;;;4441023;32;20057;-65
2022/01/19 06:18:09;;;;;;;0.60;0.60;;;5.10;99.90;;;;;;4425431;32;20188;-65
2022/01/19 06:20:35;;;;;;;0.50;0.50;;;5.20;99.90;;;;;;4440797;32;20089;-65
2022/01/19 06:23:01;;;;;;;2.97;1.73;;;5.20;99.90;;;;;;4441209;32;20523;-66
2022/01/19 06:25:27;;;;;;;0.73;0.73;;;5.20;99.90;;;;;;4438544;32;20102;-66
2022/01/19 06:27:52;;;;;;;0.40;0.40;;;5.10;99.90;;;;;;4424988;32;20097;-66
2022/01/19 06:30:18;;;;;;;0.43;0.43;;;5.20;99.90;;;;;;4428237;32;20072;-66
2022/01/19 06:32:44;;;;;;;1.08;1.08;;;5.20;99.90;;;;;;4420992;32;20247;-65
2022/01/19 06:35:10;;;;;;;1.20;1.10;;;5.20;99.90;;;;;;4435326;32;20620;-65
2022/01/19 06:37:36;;;;;;;0.50;0.50;;;5.20;99.90;;;;;;4430002;32;20163;-66
2022/01/19 06:40:05;;;;;;;4.15;0.45;;;5.20;99.90;;;;;;4431736;32;20116;-65
2022/01/19 06:42:34;;;;;;;0.45;0.45;;;5.30;99.90;;;;;;4432055;32;20125;-66
2022/01/19 06:45:04;;;;;;;1.60;1.27;;;5.20;99.90;;;;;;4434079;32;20072;-66
2022/01/19 06:47:30;;;;;;;1.45;1.23;;;5.20;99.90;;;;;;4436607;32;20642;-65
2022/01/19 06:49:58;;;;;;;12.95;1.75;;;5.10;99.90;;;;;;4433744;32;20139;-65
2022/01/19 06:52:23;;;;;;;0.52;0.52;;;5.20;99.90;;;;;;4433165;32;20096;-66
2022/01/19 06:54:49;;;;;;;0.50;0.50;;;5.20;99.90;;;;;;4432322;32;20125;-65
2022/01/19 06:57:14;;;;;;;1.98;0.93;;;5.20;99.90;;;;;;4425800;32;20630;-65
2022/01/19 06:59:40;;;;;;;1.25;0.65;;;5.30;99.90;;;;;;4428104;32;20080;-65
2022/01/19 07:02:06;;;;;;;0.85;0.85;;;5.20;99.90;;;;;;4428789;32;20073;-64
2022/01/19 07:04:32;;;;;;;0.40;0.40;;;5.20;99.90;;;;;;4429471;32;20084;-65
2022/01/19 07:06:59;;;;;;;0.77;0.77;;;5.30;99.90;;;;;;4424393;32;20089;-65
2022/01/19 07:09:24;;;;;;;0.50;0.47;;;5.30;99.90;;;;;;4427925;32;20117;-66
2022/01/19 07:11:50;;;;;;;0.50;0.50;;;5.30;99.90;;;;;;4428122;32;20460;-66
2022/01/19 07:14:17;;;;;;;0.45;0.45;;;5.20;99.90;;;;;;4422804;32;20557;-65
2022/01/19 07:16:44;;;;;;;0.62;0.62;;;5.20;99.90;;;;;;4427316;32;20085;-65
2022/01/19 07:19:13;;;;;;;2.10;1.50;;;5.20;99.90;;;;;;4431789;32;20131;-65
2022/01/19 07:21:39;;;;;;;0.50;0.50;;;5.10;99.90;;;;;;4426354;32;20108;-65
2022/01/19 07:24:05;;;;;;;0.70;0.70;;;5.10;99.90;;;;;;4426281;32;20093;-65
2022/01/19 07:26:30;;;;;;;1.25;1.20;;;5.00;99.90;;;;;;4421829;32;20069;-65
2022/01/19 07:28:56;;;;;;;0.45;0.45;;;5.00;99.90;;;;;;4428648;32;20491;-65
2022/01/19 07:31:22;;;;;;;1.65;1.37;;;5.00;99.90;;;;;;4425156;32;20068;-65
2022/01/19 07:33:48;;;;;;;0.40;0.40;;;4.90;99.90;;;;;;4428086;32;20457;-65
2022/01/19 07:36:15;;;;;;;6.07;1.37;;;4.90;99.90;;;;;;4429266;32;20108;-65
2022/01/19 07:38:41;;;;;;;2.08;1.10;;;5.00;99.90;;;;;;4432449;32;20358;-65
2022/01/19 07:41:06;;;;;;;0.40;0.40;;;4.80;99.90;;;;;;4426631;32;20104;-65
2022/01/19 07:43:32;;;;;;;0.40;0.40;;;4.70;99.90;;;;;;4427551;32;20089;-65
2022/01/19 07:45:57;;;;;;;0.45;0.45;;;4.50;99.90;;;;;;4430136;32;20234;-65
2022/01/19 07:48:23;;;;;;;0.30;0.30;;;4.60;99.90;;;;;;4429972;32;20078;-65
2022/01/19 07:50:48;;;;;;;1.12;1.05;;;4.60;99.90;;;;;;4428286;32;20113;-64
2022/01/19 07:53:14;;;;;;;4.75;0.88;;;4.50;99.90;;;;;;4429903;32;20101;-65
2022/01/19 07:55:40;;;;;;;0.30;0.30;;;4.50;99.90;;;;;;4429829;32;20081;-66
2022/01/19 07:58:05;;;;;;;0.30;0.30;;;4.30;99.90;;;;;;4432262;32;20500;-65
2022/01/19 08:00:33;;;;;;;0.50;0.50;;;4.40;99.90;;;;;;4428758;32;20084;-65
2022/01/19 08:02:58;;;;;;;2.00;0.82;;;4.50;99.90;;;;;;4425286;32;20096;-64
2022/01/19 08:05:24;;;;;;;0.50;0.50;;;4.50;99.90;;;;;;4427878;32;20482;-65
2022/01/19 08:07:49;;;;;;;1.95;0.73;;;4.40;99.90;;;;;;4431022;32;20616;-66
2022/01/19 08:10:15;;;;;;;2.33;1.35;;;4.40;99.90;;;;;;4428275;32;20131;-65
2022/01/19 08:12:42;;;;;;;2.83;1.65;;;4.40;99.90;;;;;;4425433;32;20088;-65
2022/01/19 08:15:08;;;;;;;0.65;0.60;;;4.40;99.90;;;;;;4430197;32;20460;-65
2022/01/19 08:17:34;;;;;;;0.57;0.57;;;4.50;99.90;;;;;;4427331;32;20124;-65
2022/01/19 08:19:59;;;;;;;0.32;0.32;;;4.50;99.90;;;;;;4429050;32;20645;-66
2022/01/19 08:22:25;;;;;;;1.25;1.15;;;4.60;99.90;;;;;;4426361;32;20158;-65
2022/01/19 08:24:50;;;;;;;0.70;0.70;;;4.60;99.90;;;;;;4423593;32;20432;-64
2022/01/19 08:27:17;;;;;;;0.70;0.70;;;4.50;99.90;;;;;;4426338;32;20080;-64
2022/01/19 08:29:42;;;;;;;1.83;1.25;;;4.60;99.90;;;;;;4430163;32;20312;-65
2022/01/19 08:32:08;;;;;;;0.47;0.47;;;4.60;99.90;;;;;;4424166;32;20123;-65
2022/01/19 08:34:34;;;;;;;0.47;0.45;;;4.60;99.90;;;;;;4426581;32;20088;-64
2022/01/19 08:37:00;;;;;;;2.85;1.25;;;4.80;99.90;;;;;;4430054;32;20093;-65
2022/01/19 08:39:26;;;;;;;0.82;0.60;;;4.90;99.90;;;;;;4429425;32;20467;-65
2022/01/19 08:41:53;;;;;;;3.25;1.77;;;4.90;99.90;;;;;;4426871;32;20086;-64
2022/01/19 08:44:20;;;;;;;0.50;0.50;;;4.80;99.90;;;;;;4432853;32;20152;-64
2022/01/19 08:46:45;;;;;;;1.25;1.15;;;4.80;99.90;;;;;;4431265;32;20637;-64
2022/01/19 08:49:12;;;;;;;0.50;0.50;;;4.80;99.90;;;;;;4429986;32;20061;-64
2022/01/19 08:51:37;;;;;;;0.32;0.32;;;4.60;99.90;;;;;;4419124;32;20108;-65
2022/01/19 08:54:04;;;;;;;2.30;0.85;;;4.60;99.90;;;;;;4423212;32;20356;-64
2022/01/19 08:56:29;;;;;;;0.60;0.60;;;4.70;99.90;;;;;;4424787;32;20088;-64
2022/01/19 08:58:56;;;;;;;0.30;0.30;;;4.70;99.90;;;;;;4421571;32;20084;-64
2022/01/19 09:01:22;;;;;;;0.60;0.60;;;4.70;99.90;;;;;;4419334;32;20658;-65
2022/01/19 09:03:48;;;;;;;0.50;0.50;;;4.60;99.90;;;;;;4421164;32;20529;-64
2022/01/19 09:06:14;;;;;;;2.30;0.90;;;4.80;99.90;;;;;;4424937;32;20090;-64
2022/01/19 09:08:40;;;;;;;0.47;0.47;;;4.80;99.90;;;;;;4429359;32;20092;-64
2022/01/19 09:11:06;;;;;;;8.50;2.85;;;4.70;99.90;;;;;;4426174;32;20084;-64
2022/01/19 09:13:32;;;;;;;0.32;0.32;;;4.80;99.90;;;;;;4424943;32;20628;-64
2022/01/19 09:15:58;;;;;;;0.50;0.50;;;4.80;99.90;;;;;;4426227;32;20769;-65
2022/01/19 09:18:24;;;;;;;0.47;0.47;;;4.80;99.90;;;;;;4428183;32;20077;-65
2022/01/19 09:20:50;;;;;;;0.40;0.40;;;4.80;99.90;;;;;;4429237;32;20130;-65
2022/01/19 09:23:16;;;;;;;0.77;0.77;;;4.90;99.90;;;;;;4430226;32;20101;-63
2022/01/19 09:25:41;;;;;;;0.70;0.70;;;5.00;99.90;;;;;;4434864;32;20073;-65
2022/01/19 09:28:07;;;;;;;0.52;0.52;;;4.90;99.90;;;;;;4430158;32;20072;-63
2022/01/19 09:30:34;;;;;;;28.42;1.05;;;5.00;99.90;;;;;;4426831;32;20533;-65
2022/01/19 09:33:09;;;;;;;0.52;0.52;;;5.10;99.90;;;;;;4428984;32;20688;-64
2022/01/19 09:36:29;;;;;;;1.10;0.95;;;5.10;99.90;;;;;;4427940;32;20172;-63
2022/01/19 09:38:26;;;;;;;0.75;0.75;;;5.10;99.90;;;;;;4424280;32;20132;-65
2022/01/19 09:40:52;;;;;;;11.93;0.82;;;5.10;99.90;;;;;;4426321;32;20073;-65
2022/01/19 09:43:22;;;;;;;0.52;0.52;;;5.10;99.90;;;;;;4423352;32;20376;-66
2022/01/19 09:45:49;;;;;;;3.30;0.88;;;5.10;99.90;;;;;;4420542;32;20526;-66
2022/01/19 09:48:15;;;;;;;0.40;0.40;;;5.00;99.90;;;;;;4416936;32;20088;-66
2022/01/19 09:50:41;;;;;;;0.50;0.50;;;5.00;99.90;;;;;;4418101;32;20149;-65
2022/01/19 09:53:07;;;;;;;1.17;1.08;;;5.10;99.90;;;;;;4420492;32;20097;-66
2022/01/19 09:55:34;;;;;;;0.45;0.45;;;5.10;99.90;;;;;;4426358;32;21017;-64
2022/01/19 09:58:00;;;;;;;1.75;0.77;;;5.10;99.90;;;;;;4426764;32;20513;-63
2022/01/19 10:00:25;;;;;;;0.43;0.43;;;4.90;99.90;;;;;;4430417;32;20524;-64
2022/01/19 10:03:30;;;;;;;0.50;0.50;;;4.90;99.90;;;;;;4417404;32;20433;-64
2022/01/19 10:06:05;;;;;;;0.47;0.47;;;4.80;99.90;;;;;;4408784;32;20680;-65
2022/01/19 10:08:54;;;;;;;0.40;0.40;;;4.90;99.90;;;;;;4418230;32;20564;-65
2022/01/19 10:16:58;;;;;;;0.50;0.50;;;5.00;99.90;;;;;;4418616;32;20117;-65
2022/01/19 10:17:06;;;;;;;0.47;0.47;;;5.00;99.90;;;;;;4421325;32;20303;-65
2022/01/19 10:19:42;;;;;;;0.40;0.40;;;5.10;99.90;;;;;;4422731;32;20140;-66
2022/01/19 10:22:11;;;;;;;0.40;0.40;;;5.00;99.90;;;;;;4422096;32;20116;-65
2022/01/19 10:24:40;;;;;;;0.50;0.50;;;5.00;99.90;;;;;;4415013;32;20174;-64
2022/01/19 10:27:24;;;;;;;0.70;0.70;;;5.00;99.90;;;;;;4412979;32;20730;-64
2022/01/19 10:29:53;;;;;;;0.50;0.50;;;5.00;99.90;;;;;;4418024;32;20084;-63
2022/01/19 10:32:21;;;;;;;0.65;0.65;;;5.00;99.90;;;;;;4425555;32;20391;-64
2022/01/19 10:34:46;;;;;;;0.62;0.62;;;5.00;99.90;;;;;;4424275;32;20076;-65
2022/01/19 10:37:13;;;;;;;0.85;0.57;;;4.80;99.90;;;;;;4422781;32;20085;-65
2022/01/19 10:39:45;;;;;;;0.75;0.75;;;4.60;99.90;;;;;;4424448;32;20097;-65
2022/01/19 10:42:17;;;;;;;1.10;1.00;;;4.60;99.90;;;;;;4427346;32;20133;-65
2022/01/19 10:44:49;;;;;;;1.17;0.98;;;4.70;99.90;;;;;;4425101;32;20548;-65
2022/01/19 10:47:17;;;;;;;0.60;0.60;;;4.90;99.90;;;;;;4422025;32;20117;-68
2022/01/19 10:49:59;;;;;;;0.37;0.37;;;5.00;99.90;;;;;;4425125;32;20089;-65
2022/01/19 10:52:30;;;;;;;0.68;0.68;;;4.90;99.90;;;;;;4423088;32;20101;-65
2022/01/19 10:54:58;;;;;;;0.80;0.80;;;4.60;99.90;;;;;;4425562;32;20222;-65
2022/01/19 10:57:25;;;;;;;0.62;0.62;;;4.50;99.90;;;;;;4425816;32;20717;-64
2022/01/19 10:59:51;;;;;;;0.60;0.60;;;4.50;99.90;;;;;;4426096;32;20468;-64
2022/01/19 11:02:17;;;;;;;0.85;0.85;;;4.50;99.90;;;;;;4427692;32;20077;-65
2022/01/19 11:04:45;;;;;;;0.62;0.62;;;4.50;99.90;;;;;;4430921;32;20140;-64
2022/01/19 11:07:19;;;;;;;1.55;1.00;;;4.50;99.90;;;;;;4428892;32;20561;-64
2022/01/19 11:09:57;;;;;;;0.45;0.45;;;4.40;99.90;;;;;;4422641;32;21093;-65
2022/01/19 11:12:27;;;;;;;0.50;0.50;;;4.20;99.90;;;;;;4428802;32;20124;-64
2022/01/19 11:14:52;;;;;;;0.90;0.80;;;4.20;99.90;;;;;;4428052;32;20080;-66
2022/01/19 11:17:18;;;;;;;1.60;0.80;;;4.20;99.90;;;;;;4428157;32;20081;-65
2022/01/19 11:19:44;;;;;;;2.53;0.75;;;4.10;99.90;;;;;;4419936;32;21273;-63
2022/01/19 11:22:19;;;;;;;0.57;0.57;;;4.20;99.90;;;;;;4422468;32;20147;-64
2022/01/19 11:25:13;;;;;;;0.70;0.70;;;4.00;99.90;;;;;;4430558;32;20093;-65
2022/01/19 11:27:41;;;;;;;1.67;1.50;;;4.20;99.90;;;;;;4428422;32;20092;-65
2022/01/19 11:30:21;;;;;;;0.37;0.37;;;4.00;99.90;;;;;;4434976;32;20392;-64
2022/01/19 11:33:11;;;;;;;3.37;1.25;;;4.10;99.90;;;;;;4435329;32;20088;-64
2022/01/19 11:35:38;;;;;;;0.50;0.50;;;4.10;99.90;;;;;;4433083;32;20520;-65
2022/01/19 11:38:28;;;;;;;0.70;0.70;;;4.20;99.90;;;;;;4430686;32;21672;-65
2022/01/19 11:40:54;;;;;;;0.50;0.50;;;4.10;99.90;;;;;;4432436;32;20093;-66
2022/01/19 11:43:25;;;;;;;0.88;0.88;;;4.10;99.90;;;;;;4431133;32;20093;-65
2022/01/19 11:45:51;;;;;;;1.05;1.00;;;4.20;99.90;;;;;;4428850;32;20102;-66
2022/01/19 11:48:24;;;;;;;0.70;0.70;;;4.20;99.90;;;;;;4434361;32;20109;-67
2022/01/19 11:50:51;;;;;;;0.43;0.43;;;4.10;99.90;;;;;;4426115;32;20565;-66
2022/01/19 11:53:18;;;;;;;0.70;0.60;;;4.00;99.90;;;;;;4424787;32;20084;-65
2022/01/19 11:56:06;;;;;;;0.70;0.70;;;3.90;99.90;;;;;;4417040;32;20502;-64
2022/01/19 11:58:32;;;;;;;0.43;0.43;;;3.90;99.90;;;;;;4418874;32;21008;-64
2022/01/19 12:00:58;;;;;;;0.95;0.70;;;4.00;99.90;;;;;;4412339;32;20093;-66
2022/01/19 12:03:28;;;;;;;0.88;0.82;;;4.00;99.90;;;;;;4423279;32;21312;-65
2022/01/19 12:05:55;;;;;;;0.50;0.50;;;4.00;99.90;;;;;;4422363;32;20066;-64
2022/01/19 12:08:27;;;;;;;0.55;0.55;;;3.90;99.90;;;;;;4429580;32;20080;-65
2022/01/19 12:10:57;;;;;;;0.88;0.88;;;3.90;99.90;;;;;;4426776;32;20153;-65
2022/01/19 12:13:32;;;;;;;0.70;0.70;;;4.00;99.90;;;;;;4430547;32;20127;-65
2022/01/19 12:16:26;;;;;;;0.60;0.60;;;4.00;99.90;;;;;;4426839;32;20089;-65
2022/01/19 12:18:55;;;;;;;1.45;1.17;;;4.10;99.90;;;;;;4428510;32;20079;-65
2022/01/19 12:21:23;;;;;;;0.47;0.47;;;4.00;99.90;;;;;;4430980;32;20106;-64
2022/01/19 12:23:49;;;;;;;0.60;0.60;;;3.90;99.90;;;;;;4430926;32;20109;-65
2022/01/19 12:26:15;;;;;;;1.12;0.88;;;3.70;99.90;;;;;;4427073;32;20532;-64
2022/01/19 12:28:44;;;;;;;0.40;0.40;;;3.80;99.90;;;;;;4425867;32;20075;-66
2022/01/19 12:31:35;;;;;;;0.55;0.55;;;4.00;99.90;;;;;;4429995;32;20269;-65
2022/01/19 12:34:06;;;;;;;;;;;4.00;99.90;;;;;;4433262;32;20102;-65
2022/01/19 12:36:54;;;;;;;0.95;0.75;;;4.00;99.90;;;;;;4429825;32;19970;-66
2022/01/19 12:39:29;;;;;;;1.17;0.93;;;3.90;99.90;;;;;;4430475;32;20513;-65
2022/01/19 12:42:05;;;;;;;0.52;0.52;;;3.90;99.90;;;;;;4425290;32;20089;-65
2022/01/19 12:44:56;;;;;;;0.57;0.57;;;3.90;99.90;;;;;;4430019;32;20061;-65
2022/01/19 12:47:27;;;;;;;0.88;0.88;;;4.00;99.90;;;;;;4425878;32;20735;-65
2022/01/19 12:50:04;;;;;;;4.72;0.98;;;4.10;99.90;;;;;;4418332;32;20436;-66
2022/01/19 12:52:32;;;;;;;0.40;0.40;;;3.90;99.90;;;;;;4424269;32;20112;-66
2022/01/19 12:55:09;;;;;;;1.08;1.05;;;3.90;99.90;;;;;;4426309;32;20105;-66
2022/01/19 12:57:34;;;;;;;1.08;0.95;;;4.00;99.90;;;;;;4421391;32;21187;-67
2022/01/19 13:00:00;;;;;;;0.40;0.40;;;4.00;99.90;;;;;;4426563;32;20475;-65
2022/01/19 13:02:29;;;;;;;2.80;1.70;;;4.10;99.90;;;;;;4428993;32;20053;-65
2022/01/19 13:05:04;;;;;;;0.77;0.77;;;4.10;99.90;;;;;;4430577;32;20428;-66
2022/01/19 13:07:31;;;;;;;0.50;0.50;;;4.10;99.90;;;;;;4432556;32;20093;-66
2022/01/19 13:10:07;;;;;;;0.75;0.75;;;4.10;99.90;;;;;;4431792;32;20117;-65
2022/01/19 13:12:38;;;;;;;1.08;0.93;;;4.00;99.90;;;;;;4429931;32;20076;-65
2022/01/19 13:15:04;;;;;;;0.95;0.85;;;4.00;99.90;;;;;;4431603;32;20093;-66
2022/01/19 13:17:51;;;;;;;0.60;0.60;;;4.00;99.90;;;;;;4429166;32;20093;-64
2022/01/19 13:20:19;;;;;;;0.65;0.65;;;4.00;99.90;;;;;;4420182;32;20089;-65
2022/01/19 13:22:54;;;;;;;0.50;0.50;;;4.00;99.90;;;;;;4425902;32;20072;-65
2022/01/19 13:25:25;;;;;;;0.50;0.50;;;4.00;99.90;;;;;;4429829;32;20098;-65
2022/01/19 13:27:55;;;;;;;2.30;0.85;;;3.90;99.90;;;;;;4423033;32;20089;-64
2022/01/19 13:30:24;;;;;;;0.60;0.60;;;4.00;99.90;;;;;;4426942;32;20085;-65
2022/01/19 13:32:50;;;;;;;0.32;0.32;;;4.00;99.90;;;;;;4421326;32;21684;-65
2022/01/19 13:35:17;;;;;;;0.70;0.70;;;3.90;99.90;;;;;;4431824;32;20085;-65
2022/01/19 13:37:46;;;;;;;0.75;0.75;;;3.80;99.90;;;;;;4430654;32;20554;-64
2022/01/19 13:40:16;;;;;;;0.40;0.40;;;3.80;99.90;;;;;;4433851;32;20072;-64
2022/01/19 13:42:47;;;;;;;0.50;0.50;;;3.80;99.90;;;;;;4428279;32;20069;-66
2022/01/19 13:45:48;;;;;;;3.03;0.85;;;3.90;99.90;;;;;;4425065;32;20208;-65
2022/01/19 13:50:47;;;;;;;2.17;0.68;;;4.10;99.90;;;;;;4432774;32;20104;-65
2022/01/19 13:53:14;;;;;;;0.50;0.50;;;4.10;99.90;;;;;;4431631;32;20069;-65
2022/01/19 13:55:41;;;;;;;0.43;0.43;;;4.10;99.90;;;;;;4438123;32;20588;-64
2022/01/19 13:58:10;;;;;;;1.08;0.65;;;4.20;99.90;;;;;;4433020;32;20529;-65
2022/01/19 14:00:56;;;;;;;0.80;0.80;;;4.20;99.90;;;;;;4440198;32;20461;-65
2022/01/19 14:03:24;;;;;;;0.50;0.50;;;4.20;99.90;;;;;;4432846;32;20113;-65
2022/01/19 14:05:53;;;;;;;1.85;1.00;;;4.30;99.90;;;;;;4430046;32;20146;-65